This is the latest recevied weather packets stored in our database for station/object OE5HMR-13. If no packets are shown the sender has not sent any weather packets the latest 10 day(s).
| Time | Temp. | Humidity | Pressure | Rain* | Wind** | Luminosity | Snow |
|---|---|---|---|---|---|---|---|
| 1777772738 | 3.33° C | 60% | 1016.7 hPa | 0 mm | - | - | - |
| 1777770957 | 3.89° C | 58% | 1016.7 hPa | 0 mm | - | - | - |
| 1777770352 | 4.44° C | 57% | 1016.7 hPa | 0 mm | - | - | - |
| 1777766732 | 5.56° C | 54% | 1017.8 hPa | 0 mm | - | - | - |
| 1777758931 | 6.67° C | 46% | 1018.9 hPa | 0 mm | - | - | - |
| 1777756532 | 7.78° C | 43% | 1018.9 hPa | 0 mm | - | - | - |
| 1777755328 | 8.89° C | 40% | 1018.9 hPa | 0 mm | - | - | - |
| 1777750533 | 11.67° C | 35% | 1018.9 hPa | 0 mm | - | - | - |
| 1777747533 | 14.44° C | 31% | 1018.9 hPa | 0 mm | - | - | - |
| 1777745778 | 16.11° C | 28% | 1018.9 hPa | 0 mm | - | - | - |
| 1777740930 | 22.22° C | 26% | 1018.9 hPa | 0 mm | - | - | - |
| 1777734929 | 23.33° C | 27% | 1021.1 hPa | 0 mm | - | - | - |
| 1777733129 | 23.33° C | 27% | 1021.1 hPa | 0 mm | - | - | - |
| 1777732532 | 22.78° C | 27% | 1021.1 hPa | 0 mm | - | - | - |
| 1777731935 | 22.78° C | 28% | 1021.1 hPa | 0 mm | - | - | - |
| 1777728341 | 22.78° C | 29% | 1021.1 hPa | 0 mm | - | - | - |
| 1777727733 | 22.78° C | 28% | 1021.1 hPa | 0 mm | - | - | - |
| 1777723526 | 22.22° C | 27% | 1022.2 hPa | 0 mm | - | - | - |
| 1777722945 | 21.67° C | 26% | 1022.2 hPa | 0 mm | - | - | - |
| 1777718727 | 20.56° C | 28% | 1022.2 hPa | 0 mm | - | - | - |
| 1777712128 | 18.33° C | 38% | 1023.2 hPa | 0 mm | - | - | - |
| 1777704336 | 12.78° C | 60% | 1023.2 hPa | 0 mm | - | - | - |
| 1777703125 | 9.44° C | 72% | 1023.2 hPa | 0 mm | - | - | - |
| 1777698333 | 4.44° C | 71% | 1023.2 hPa | 0 mm | - | - | - |
| 1777697129 | 3.89° C | 70% | 1022.2 hPa | 0 mm | - | - | - |
* Rain latest hour (hover to see other rain measurements)
** Current wind speed in m/s (hover to see current wind gust speed)